Historique des mesures à Cassis (13260), France
Quotidien Résumé Janvier 17, 2018 Unités:  Métrique/US    US   Métrique
« Précédent (Jour)
Suivant (Jour) »
Quotidien Hebdomadaire Mensuel Annuel Période au choix
  Maximum: Minimum: Moyenne:
Température: 32 °F /  TemperatureC °C 48.6 °F /  9.2 °C 52.5 °F /  11.4 °C
Point de rosée: 32 °F /  DewpointC °C 28 °F /  -2.2 °C 35.2 °F /  1.8 °C
Humidité: Humidity % 38 % 49 %
Vitesse du vent: WindSpeedKMH mph /  0 km/h - 16.6 mph /  26.7 km/h
Rafales: WindSpeedGustKMH mph /  0 km/h - -
Vent:- - WSW
Pression: 0 in /  PressurehPa hPa 29.7 in /  1006.7 hPa -
Précipitations: 0 in /  0.0 mm    
Historical Graphs
 
 
Mesures pour : Janvier 17, 2018
Heure Temperature Point de rosée Pression Vent Vitesse du vent Rafales Humidité Pluie (par heure) Conditions
32 °F /  TemperatureC °C 32 °F /  DewpointC °C 0 in /  PressurehPa hPa Calm     Humidity % 0 in /  HourlyPrecipMM mm SoftwareType W/m2
00:12 58.3 °F /  14.6 °C 48.6 °F /  9.2 °C 29.8 in /  1008.0 hPa NNW 5.5 mph /  8.9 km/h 18.3 mph /  29.5 km/h 70 % 0 in /  0.0 mm open2300-1.11 W/m2
01:12 58.1 °F /  14.5 °C 48 °F /  8.9 °C 29.7 in /  1007.0 hPa Calm   5.0 mph /  8 km/h 69 % 0 in /  0.0 mm open2300-1.11 W/m2
02:12 57.9 °F /  14.4 °C 48.6 °F /  9.2 °C 29.7 in /  1006.7 hPa WNW 17.2 mph /  27.7 km/h 17.2 mph /  27.7 km/h 71 % 0 in /  0.0 mm open2300-1.11 W/m2
05:12 55.6 °F /  13.1 °C 45.1 °F /  7.3 °C 29.7 in /  1006.7 hPa WNW 14.0 mph /  22.5 km/h 30.2 mph /  48.6 km/h 68 % 0 in /  0.0 mm open2300-1.11 W/m2
06:12 55 °F /  12.8 °C 42.6 °F /  5.9 °C 29.7 in /  1006.7 hPa WNW 27.7 mph /  44.6 km/h 30.2 mph /  48.6 km/h 63 % 0 in /  0.0 mm open2300-1.11 W/m2
07:12 54.5 °F /  12.5 °C 39.6 °F /  4.2 °C 29.7 in /  1007.3 hPa WSW 32.0 mph /  51.5 km/h 32.0 mph /  51.5 km/h 57 % 0 in /  0.0 mm open2300-1.11 W/m2
08:12 53.2 °F /  11.8 °C 38.3 °F /  3.5 °C 29.8 in /  1008.7 hPa West 5.0 mph /  8 km/h 23.3 mph /  37.5 km/h 57 % 0 in /  0.0 mm open2300-1.11 W/m2
09:12 52.9 °F /  11.6 °C 37.6 °F /  3.1 °C 29.8 in /  1009.4 hPa NNW 15.4 mph /  24.8 km/h 23.3 mph /  37.5 km/h 56 % 0 in /  0.0 mm open2300-1.11 W/m2
10:12 52.3 °F /  11.3 °C 36.1 °F /  2.3 °C 29.8 in /  1010.7 hPa North 15.1 mph /  24.3 km/h 33.8 mph /  54.4 km/h 54 % 0 in /  0.0 mm open2300-1.11 W/m2
11:12 52.7 °F /  11.5 °C 35.1 °F /  1.7 °C 29.9 in /  1011.7 hPa NNW 16.9 mph /  27.2 km/h 16.9 mph /  27.2 km/h 51 % 0 in /  0.0 mm open2300-1.11 W/m2
12:12 54.1 °F /  12.3 °C 33.1 °F /  0.6 °C 29.9 in /  1011.7 hPa NNW 9.7 mph /  15.6 km/h 16.9 mph /  27.2 km/h 45 % 0 in /  0.0 mm open2300-1.11 W/m2
13:12 54 °F /  12.2 °C 31.8 °F /  -0.1 °C 29.9 in /  1011.7 hPa NW 30.2 mph /  48.6 km/h 30.2 mph /  48.6 km/h 43 % 0 in /  0.0 mm open2300-1.11 W/m2
14:12 54.1 °F /  12.3 °C 31.5 °F /  -0.3 °C 29.9 in /  1011.4 hPa WNW 25.3 mph /  40.7 km/h 76.7 mph /  123.4 km/h 42 % 0 in /  0.0 mm open2300-1.11 W/m2
15:12 54.1 °F /  12.3 °C 28.9 °F /  -1.7 °C 29.9 in /  1012.1 hPa NNW 28.5 mph /  45.9 km/h 30.2 mph /  48.6 km/h 38 % 0 in /  0.0 mm open2300-1.11 W/m2
16:12 53.8 °F /  12.1 °C 28.6 °F /  -1.9 °C 29.9 in /  1013.1 hPa WNW 23.8 mph /  38.3 km/h 26.2 mph /  42.2 km/h 38 % 0 in /  0.0 mm open2300-1.11 W/m2
17:12 52.5 °F /  11.4 °C 28.2 °F /  -2.1 °C 29.9 in /  1013.8 hPa North 16.9 mph /  27.2 km/h 16.9 mph /  27.2 km/h 39 % 0 in /  0.0 mm open2300-1.11 W/m2
18:12 51.6 °F /  10.9 °C 29.1 °F /  -1.6 °C 30 in /  1015.1 hPa North 11.6 mph /  18.7 km/h 20.9 mph /  33.6 km/h 42 % 0 in /  0.0 mm open2300-1.11 W/m2
19:12 51.1 °F /  10.6 °C 28.8 °F /  -1.8 °C 30 in /  1015.8 hPa NW 11.9 mph /  19.2 km/h 12.2 mph /  19.6 km/h 42 % 0 in /  0.0 mm open2300-1.11 W/m2
20:12 50.2 °F /  10.1 °C 28.4 °F /  -2.0 °C 30 in /  1016.8 hPa WNW 25.9 mph /  41.7 km/h 25.9 mph /  41.7 km/h 43 % 0 in /  0.0 mm open2300-1.11 W/m2
21:12 49.3 °F /  9.6 °C 28 °F /  -2.2 °C 30.1 in /  1017.5 hPa North 14.0 mph /  22.5 km/h 17.7 mph /  28.5 km/h 44 % 0 in /  0.0 mm open2300-1.11 W/m2
23:12 48.6 °F /  9.2 °C 28.6 °F /  -1.9 °C 30.1 in /  1018.2 hPa WNW 17.7 mph /  28.5 km/h 19.8 mph /  31.9 km/h 46 % 0 in /  0.0 mm open2300-1.11 W/m2
Observations météo à CASSIS
WU-History script by Weather Underground - 1 mb